Time;durP1;ratioP1;P1;durP2;ratioP2;P2;SDS_P1;SDS_P2;PMS_P1;PMS_P2;Temp;Humidity;BMP_temperature;BMP_pressure;BME280_temperature;BME280_humidity;BME280_pressure;Samples;Min_cycle;Max_cycle;Signal;HPM_P1;HPM_P2
2022/07/22 00:00:04;;;;;;;;;30.00;26.50;;;;;23.55;57.65;101560.63;5021321;28;45381;-67
2022/07/22 00:02:30;;;;;;;;;28.00;26.25;;;;;23.44;57.84;101551.38;5020257;28;45337;-67
2022/07/22 00:04:55;;;;;;;;;26.00;25.50;;;;;23.46;57.73;101546.69;5020675;28;45245;-67
2022/07/22 00:07:20;;;;;;;;;25.00;23.50;;;;;23.46;57.95;101556.72;5020775;28;45248;-67
2022/07/22 00:09:46;;;;;;;;;24.00;24.00;;;;;23.41;57.87;101551.59;5020413;28;45363;-66
2022/07/22 00:12:11;;;;;;;;;21.00;17.25;;;;;23.35;58.13;101564.81;5019779;28;45245;-67
2022/07/22 00:14:37;;;;;;;;;23.75;22.00;;;;;23.29;58.32;101561.56;5018783;28;46393;-67
2022/07/22 00:17:02;;;;;;;;;19.75;19.75;;;;;23.25;58.52;101557.31;5020771;28;45285;-67
2022/07/22 00:19:27;;;;;;;;;22.25;21.00;;;;;23.22;58.53;101551.22;5021090;28;46100;-67
2022/07/22 00:21:53;;;;;;;;;26.75;25.25;;;;;23.16;58.33;101547.09;5020453;28;45444;-67
2022/07/22 00:24:18;;;;;;;;;23.75;22.25;;;;;23.20;58.36;101558.63;5020501;28;45267;-67
2022/07/22 00:26:44;;;;;;;;;21.25;19.75;;;;;23.14;58.32;101559.97;5020382;28;45684;-67
2022/07/22 00:29:09;;;;;;;;;26.75;25.00;;;;;23.13;58.71;101552.75;5019558;28;45365;-67
2022/07/22 00:31:35;;;;;;;;;23.75;22.75;;;;;23.03;58.83;101543.50;5019767;28;45486;-67
2022/07/22 00:34:01;;;;;;;;;26.00;25.50;;;;;23.01;58.71;101542.75;5020324;28;45364;-67
2022/07/22 00:36:27;;;;;;;;;21.00;19.75;;;;;22.99;58.91;101540.13;5020457;28;45612;-67
2022/07/22 00:38:52;;;;;;;;;26.25;22.25;;;;;23.01;58.64;101548.19;5020626;28;45390;-67
2022/07/22 00:41:18;;;;;;;;;21.75;20.25;;;;;22.98;58.11;101549.25;5018390;28;46837;-67
2022/07/22 00:43:49;;;;;;;;;23.25;23.25;;;;;22.92;59.18;101539.69;5018854;28;45308;-67
2022/07/22 00:46:14;;;;;;;;;21.50;20.25;;;;;22.92;58.71;101536.97;5019194;28;45443;-67
2022/07/22 00:48:40;;;;;;;;;16.00;15.00;;;;;22.90;58.45;101538.94;5020778;28;45387;-67
2022/07/22 00:51:05;;;;;;;;;22.00;18.25;;;;;22.84;59.06;101528.50;5019890;28;45500;-67
2022/07/22 00:53:31;;;;;;;;;17.25;17.00;;;;;22.87;59.10;101525.56;5019938;28;46687;-67
2022/07/22 00:55:56;;;;;;;;;17.75;17.50;;;;;22.89;59.41;101520.00;5019798;28;45241;-66
2022/07/22 00:58:21;;;;;;;;;23.25;21.75;;;;;22.93;59.11;101526.94;5020566;28;45304;-67
2022/07/22 01:00:47;;;;;;;;;23.75;20.75;;;;;22.89;58.93;101518.13;5020430;28;45588;-67
2022/07/22 01:03:13;;;;;;;;;22.75;22.75;;;;;22.83;59.20;101513.13;5019785;28;46013;-66
2022/07/22 01:05:39;;;;;;;;;22.00;20.25;;;;;22.88;58.76;101513.66;5019800;28;45428;-67
2022/07/22 01:08:07;;;;;;;;;20.75;20.50;;;;;22.82;59.17;101516.84;5020430;28;45284;-67
2022/07/22 01:10:33;;;;;;;;;23.50;22.50;;;;;22.81;59.37;101516.97;5019029;28;45419;-67
2022/07/22 01:12:58;;;;;;;;;22.00;19.50;;;;;22.75;59.13;101516.41;5019779;28;45493;-67
2022/07/22 01:15:23;;;;;;;;;18.25;16.25;;;;;22.68;59.07;101516.94;5015992;28;45307;-67
2022/07/22 01:17:49;;;;;;;;;25.00;18.25;;;;;22.60;59.45;101522.94;5020245;28;45496;-67
2022/07/22 01:20:15;;;;;;;;;19.75;17.50;;;;;22.57;59.30;101521.31;5019940;28;45335;-67
2022/07/22 01:22:40;;;;;;;;;21.25;19.75;;;;;22.53;59.57;101522.50;5019505;28;45596;-66
2022/07/22 01:25:06;;;;;;;;;21.25;19.75;;;;;22.49;59.77;101509.25;5019627;28;45302;-66
2022/07/22 01:27:31;;;;;;;;;21.25;19.25;;;;;22.43;59.37;101515.97;5019775;28;45369;-67
2022/07/22 01:29:57;;;;;;;;;19.25;18.25;;;;;22.42;59.57;101519.69;5018444;28;45542;-67
2022/07/22 01:32:22;;;;;;;;;18.00;18.00;;;;;22.40;59.65;101516.16;5019550;28;46126;-66
2022/07/22 01:34:48;;;;;;;;;20.00;18.00;;;;;22.32;59.96;101515.84;5019242;28;45364;-67
2022/07/22 01:37:13;;;;;;;;;21.25;18.50;;;;;22.31;59.96;101517.69;5020008;28;45304;-67
2022/07/22 01:39:38;;;;;;;;;21.00;18.00;;;;;22.29;60.23;101514.22;5018477;28;45303;-66
2022/07/22 01:42:04;;;;;;;;;20.25;18.25;;;;;22.32;60.13;101521.28;5019056;28;45419;-66
2022/07/22 01:44:31;;;;;;;;;16.50;16.50;;;;;22.34;60.08;101514.75;5019316;28;45321;-66
2022/07/22 01:46:58;;;;;;;;;18.00;16.00;;;;;22.34;59.64;101511.19;5020019;28;45252;-67
2022/07/22 01:49:24;;;;;;;;;18.00;17.50;;;;;22.32;59.67;101514.00;5019690;28;45288;-66
2022/07/22 01:51:49;;;;;;;;;16.25;15.25;;;;;22.30;60.47;101509.63;5018546;28;45358;-66
2022/07/22 01:54:15;;;;;;;;;20.50;18.75;;;;;22.35;59.85;101518.34;5019489;28;45525;-66
2022/07/22 01:56:41;;;;;;;;;19.50;16.75;;;;;22.30;59.63;101509.63;5017696;28;45436;-66
2022/07/22 01:59:07;;;;;;;;;16.00;16.00;;;;;22.26;60.00;101508.97;5022372;28;45608;-67
2022/07/22 02:01:32;;;;;;;;;18.25;16.25;;;;;22.28;60.43;101514.28;5022653;28;45427;-66
2022/07/22 02:03:58;;;;;;;;;15.25;14.75;;;;;22.24;60.16;101508.19;5022941;28;45440;-67
2022/07/22 02:06:23;;;;;;;;;16.50;16.25;;;;;22.25;60.35;101506.34;5021934;28;45332;-66
2022/07/22 02:08:48;;;;;;;;;16.00;15.75;;;;;22.18;59.87;101497.75;5022907;28;45326;-66
2022/07/22 02:11:14;;;;;;;;;17.00;15.75;;;;;22.16;60.02;101502.41;5021306;28;45427;-67
2022/07/22 02:13:39;;;;;;;;;17.25;13.75;;;;;22.09;60.54;101498.41;5021130;28;45307;-66
2022/07/22 02:16:04;;;;;;;;;21.00;18.75;;;;;22.06;60.50;101504.03;5012591;28;45237;-67
2022/07/22 02:18:30;;;;;;;;;18.50;18.00;;;;;21.96;60.34;101491.06;5022821;28;45300;-66
2022/07/22 02:20:55;;;;;;;;;20.50;20.50;;;;;21.96;60.41;101498.34;5022577;28;46107;-66
2022/07/22 02:23:20;;;;;;;;;14.50;13.25;;;;;21.92;60.75;101502.25;5022368;28;45371;-66
2022/07/22 02:25:46;;;;;;;;;15.50;15.50;;;;;21.91;60.77;101495.94;5022075;28;45785;-66
2022/07/22 02:28:11;;;;;;;;;15.00;15.00;;;;;21.93;60.55;101498.56;5021380;28;45444;-67
2022/07/22 02:30:37;;;;;;;;;22.00;20.25;;;;;21.93;60.86;101510.28;5022471;28;46220;-67
2022/07/22 02:33:03;;;;;;;;;20.25;18.25;;;;;21.94;60.52;101511.19;5021957;28;45376;-67
2022/07/22 02:35:28;;;;;;;;;20.50;20.00;;;;;21.89;60.20;101508.78;5022796;28;45305;-66
2022/07/22 02:37:54;;;;;;;;;22.50;19.00;;;;;21.81;60.35;101492.13;5022538;28;45252;-66
2022/07/22 02:40:19;;;;;;;;;16.25;13.75;;;;;21.78;60.53;101495.03;5020372;28;45507;-66
2022/07/22 02:42:44;;;;;;;;;17.00;14.75;;;;;21.72;60.14;101501.78;5020734;28;45471;-66
2022/07/22 02:45:10;;;;;;;;;16.75;16.75;;;;;21.65;61.04;101508.56;5021538;28;46265;-66
2022/07/22 02:47:45;;;;;;;;;16.75;16.75;;;;;21.61;61.25;101507.91;5021428;28;45400;-67
2022/07/22 02:50:10;;;;;;;;;19.75;19.75;;;;;21.62;60.73;101511.53;5022004;28;45410;-66
2022/07/22 02:52:35;;;;;;;;;17.00;16.25;;;;;21.62;60.87;101503.38;5021030;28;45291;-66
2022/07/22 02:55:01;;;;;;;;;18.00;17.25;;;;;21.59;61.12;101493.56;5022342;28;45466;-66
2022/07/22 02:57:26;;;;;;;;;20.25;18.25;;;;;21.62;61.03;101497.94;5021863;28;45405;-66
2022/07/22 02:59:51;;;;;;;;;18.25;17.00;;;;;21.54;61.50;101489.44;5022119;28;45411;-66
2022/07/22 03:02:16;;;;;;;;;20.50;18.00;;;;;21.54;61.26;101484.00;5021510;28;45423;-66
2022/07/22 03:04:42;;;;;;;;;16.25;16.25;;;;;21.52;61.07;101488.63;5022361;28;45422;-66
2022/07/22 03:07:07;;;;;;;;;23.25;20.25;;;;;21.48;61.37;101484.41;5022100;28;45379;-66
2022/07/22 03:09:32;;;;;;;;;21.00;20.50;;;;;21.52;61.41;101486.81;5021373;28;45374;-67
2022/07/22 03:11:58;;;;;;;;;18.00;16.25;;;;;21.53;60.99;101490.38;5020868;28;45495;-66
2022/07/22 03:14:23;;;;;;;;;17.75;16.00;;;;;21.49;61.09;101497.00;5021737;28;45280;-67
2022/07/22 03:16:48;;;;;;;;;19.50;18.50;;;;;21.50;61.53;101490.59;5021009;28;45445;-66
2022/07/22 03:19:14;;;;;;;;;19.00;19.00;;;;;21.49;61.29;101480.72;5021781;28;45356;-66
2022/07/22 03:21:39;;;;;;;;;15.75;14.50;;;;;21.49;61.67;101480.72;5021047;28;45308;-66
2022/07/22 03:24:04;;;;;;;;;21.50;18.50;;;;;21.53;61.50;101493.09;5022013;28;45268;-66
2022/07/22 03:26:30;;;;;;;;;14.50;14.50;;;;;21.54;61.39;101487.56;5021416;28;45294;-66
2022/07/22 03:28:55;;;;;;;;;18.50;16.25;;;;;21.52;61.44;101483.19;5021512;28;51408;-66
2022/07/22 03:31:20;;;;;;;;;17.75;16.25;;;;;21.55;61.56;101493.88;5021303;28;45517;-66
2022/07/22 03:33:46;;;;;;;;;16.50;14.00;;;;;21.53;61.51;101482.25;5021370;28;45154;-67
2022/07/22 03:36:11;;;;;;;;;14.75;14.75;;;;;21.50;60.83;101488.75;5021825;28;45291;-67
2022/07/22 03:38:37;;;;;;;;;17.25;17.25;;;;;21.49;61.23;101486.16;5021440;28;45336;-66
2022/07/22 03:41:03;;;;;;;;;19.00;15.00;;;;;21.54;61.54;101478.56;5021086;28;45304;-66
2022/07/22 03:43:28;;;;;;;;;21.50;19.25;;;;;21.55;61.50;101492.03;5020601;28;45275;-66
2022/07/22 03:45:54;;;;;;;;;18.75;16.50;;;;;21.50;61.13;101475.19;5020316;28;45310;-66
2022/07/22 03:48:19;;;;;;;;;18.00;15.50;;;;;21.51;60.58;101489.63;5021572;28;45404;-66
2022/07/22 03:50:44;;;;;;;;;18.25;15.50;;;;;21.44;61.57;101487.28;5021037;28;45374;-66
2022/07/22 03:53:10;;;;;;;;;16.50;16.50;;;;;21.41;61.35;101478.47;5020777;28;45386;-67
2022/07/22 03:55:36;;;;;;;;;20.00;20.00;;;;;21.37;61.27;101477.81;5021099;28;45526;-66
2022/07/22 03:58:02;;;;;;;;;19.75;19.75;;;;;21.36;61.04;101483.34;5021386;28;45417;-66
2022/07/22 04:00:27;;;;;;;;;17.50;17.50;;;;;21.36;61.47;101489.63;5020874;28;45382;-66
2022/07/22 04:02:53;;;;;;;;;17.50;17.50;;;;;21.32;61.72;101476.34;5020751;28;45421;-66
2022/07/22 04:05:18;;;;;;;;;20.75;19.00;;;;;21.33;61.35;101491.69;5018620;28;45707;-66
2022/07/22 04:07:43;;;;;;;;;15.50;15.00;;;;;21.25;61.26;101482.19;5021266;28;45368;-66
2022/07/22 04:10:09;;;;;;;;;17.75;16.75;;;;;21.26;61.66;101483.06;5020729;28;45233;-66
2022/07/22 04:12:37;;;;;;;;;16.00;16.00;;;;;21.22;61.38;101482.41;5020828;28;45417;-66
2022/07/22 04:15:04;;;;;;;;;17.25;13.25;;;;;21.17;61.69;101479.13;5020982;28;45389;-66
2022/07/22 04:17:30;;;;;;;;;16.00;14.25;;;;;21.14;61.70;101476.59;5020996;28;45579;-66
2022/07/22 04:19:55;;;;;;;;;15.75;15.75;;;;;21.20;61.72;101478.03;5019398;28;45920;-66
2022/07/22 04:22:21;;;;;;;;;15.50;15.25;;;;;21.21;61.83;101480.66;5019543;28;45410;-66
2022/07/22 04:24:46;;;;;;;;;21.00;19.75;;;;;21.26;61.84;101478.50;5020877;28;45402;-66
2022/07/22 04:27:11;;;;;;;;;19.25;18.25;;;;;21.25;61.29;101475.88;5020570;28;47715;-66
2022/07/22 04:29:37;;;;;;;;;16.25;16.00;;;;;21.18;61.21;101464.56;5020775;28;45420;-66
2022/07/22 04:32:02;;;;;;;;;17.00;15.50;;;;;21.24;61.80;101466.88;5020371;28;45287;-66
2022/07/22 04:34:27;;;;;;;;;19.25;16.75;;;;;21.25;61.51;101468.63;5020048;28;45458;-66
2022/07/22 04:36:53;;;;;;;;;16.75;15.00;;;;;21.29;61.36;101472.00;5016877;28;47260;-66
2022/07/22 04:39:18;;;;;;;;;16.25;14.75;;;;;21.25;61.53;101474.06;5019483;28;50654;-66
2022/07/22 04:41:44;;;;;;;;;16.75;16.75;;;;;21.22;61.70;101466.09;5019211;28;45299;-66
2022/07/22 04:44:09;;;;;;;;;14.50;14.00;;;;;21.19;61.32;101457.31;5028695;28;45314;-67
2022/07/22 04:46:34;;;;;;;;;16.75;16.25;;;;;21.22;61.79;101473.41;5018165;28;46508;-64
2022/07/22 04:49:00;;;;;;;;;19.75;18.00;;;;;21.19;61.63;101465.44;5019686;28;45458;-64
2022/07/22 04:51:25;;;;;;;;;15.25;13.75;;;;;21.19;61.45;101469.03;5019681;28;45146;-64
2022/07/22 04:53:50;;;;;;;;;17.50;17.50;;;;;21.13;61.08;101454.97;5017247;28;46158;-64
2022/07/22 04:56:16;;;;;;;;;19.50;19.25;;;;;21.19;61.49;101466.31;5020270;28;45423;-64
2022/07/22 04:58:41;;;;;;;;;16.75;14.25;;;;;21.18;61.33;101460.97;5019940;28;45303;-64
2022/07/22 05:01:07;;;;;;;;;18.50;17.25;;;;;21.23;61.23;101464.25;5019928;28;45327;-64
2022/07/22 05:03:32;;;;;;;;;17.75;15.75;;;;;21.16;61.62;101447.50;5019449;28;45568;-64
2022/07/22 05:05:59;;;;;;;;;20.50;16.75;;;;;21.14;61.18;101444.03;5016150;28;45435;-64
2022/07/22 05:08:24;;;;;;;;;17.75;16.75;;;;;21.10;61.57;101445.22;5020091;28;45339;-64
2022/07/22 05:10:49;;;;;;;;;15.25;15.25;;;;;21.13;61.91;101455.84;5019762;28;45411;-64
2022/07/22 05:13:14;;;;;;;;;19.00;16.25;;;;;21.06;61.84;101436.38;5019643;28;45284;-64
2022/07/22 05:15:40;;;;;;;;;18.50;18.00;;;;;21.15;61.53;101455.75;5006846;28;45368;-64
2022/07/22 05:18:06;;;;;;;;;14.50;13.00;;;;;21.13;61.68;101446.84;5019582;28;45442;-64
2022/07/22 05:20:31;;;;;;;;;17.50;17.25;;;;;21.20;61.86;101451.78;5019262;28;45374;-64
2022/07/22 05:22:58;;;;;;;;;13.50;13.50;;;;;21.22;61.66;101449.81;5018036;28;46359;-65
2022/07/22 05:25:24;;;;;;;;;18.75;17.25;;;;;21.27;61.50;101454.94;5013521;28;48452;-66
2022/07/22 05:27:55;;;;;;;;;18.25;17.25;;;;;21.26;61.28;101456.78;5019183;28;45414;-67
2022/07/22 05:30:21;;;;;;;;;15.00;14.25;;;;;21.26;61.21;101439.63;5016297;28;45338;-66
2022/07/22 05:32:47;;;;;;;;;19.00;14.75;;;;;21.34;60.97;101447.28;5015148;28;45697;-66
2022/07/22 05:35:12;;;;;;;;;16.50;15.25;;;;;21.35;61.68;101449.00;5017646;28;45438;-67
2022/07/22 05:37:38;;;;;;;;;28.00;21.25;;;;;21.40;61.37;101452.28;5018589;28;46049;-67
2022/07/22 05:40:04;;;;;;;;;16.00;15.50;;;;;21.43;60.81;101452.06;5019724;28;45318;-66
2022/07/22 05:42:29;;;;;;;;;12.00;10.75;;;;;21.46;61.15;101449.16;5015608;28;45383;-66
2022/07/22 05:44:54;;;;;;;;;15.50;13.50;;;;;21.50;61.12;101449.84;5019307;28;45605;-65
2022/07/22 05:47:19;;;;;;;;;14.75;14.50;;;;;21.48;61.07;101435.50;5015767;28;45437;-65
2022/07/22 05:49:45;;;;;;;;;21.75;18.50;;;;;21.49;61.00;101437.25;5017160;28;45368;-65
2022/07/22 05:52:10;;;;;;;;;19.75;18.50;;;;;21.50;60.71;101447.13;5018707;28;45530;-65
2022/07/22 05:54:36;;;;;;;;;18.00;16.75;;;;;21.48;60.58;101440.94;5019376;28;47502;-64
2022/07/22 05:57:02;;;;;;;;;19.25;18.75;;;;;21.45;60.10;101442.84;5019474;28;45346;-64
2022/07/22 05:59:27;;;;;;;;;12.50;12.50;;;;;21.41;60.72;101435.88;5016180;28;45240;-64
2022/07/22 06:01:53;;;;;;;;;22.25;19.75;;;;;21.38;61.24;101446.94;5013328;28;45308;-65
2022/07/22 06:04:18;;;;;;;;;17.50;17.00;;;;;21.36;61.12;101434.44;5018253;28;45628;-65
2022/07/22 06:06:43;;;;;;;;;16.50;16.50;;;;;21.33;60.78;101424.66;5008464;28;45319;-65
2022/07/22 06:09:09;;;;;;;;;24.50;20.25;;;;;21.33;61.37;101427.38;5018406;28;45449;-65
2022/07/22 06:11:34;;;;;;;;;18.25;17.75;;;;;21.33;61.08;101431.94;5017389;28;45517;-65
2022/07/22 06:13:59;;;;;;;;;15.50;15.00;;;;;21.30;61.48;101430.31;5017807;28;45505;-65
2022/07/22 06:16:25;;;;;;;;;20.50;18.75;;;;;21.34;61.22;101433.69;5019252;28;46684;-65
2022/07/22 06:18:50;;;;;;;;;17.25;16.25;;;;;21.32;61.02;101443.75;5019552;28;45429;-65
2022/07/22 06:21:15;;;;;;;;;18.50;17.50;;;;;21.32;61.69;101444.66;5018898;28;45504;-65
2022/07/22 06:23:41;;;;;;;;;16.50;14.75;;;;;21.36;61.45;101448.03;5015070;28;46080;-65
2022/07/22 06:26:06;;;;;;;;;18.50;18.25;;;;;21.39;61.68;101442.41;5016813;28;45315;-65
2022/07/22 06:28:32;;;;;;;;;21.75;18.00;;;;;21.42;61.57;101437.63;5018665;28;45298;-65
2022/07/22 06:30:57;;;;;;;;;25.25;22.50;;;;;21.41;60.95;101441.31;5018644;28;45509;-65
2022/07/22 06:33:22;;;;;;;;;16.75;14.75;;;;;21.39;61.49;101439.69;5019035;28;45475;-65
2022/07/22 06:35:48;;;;;;;;;18.75;17.00;;;;;21.32;61.22;101422.94;5014818;28;45347;-65
2022/07/22 06:38:13;;;;;;;;;17.50;15.25;;;;;21.44;60.97;101442.97;5017497;28;45581;-65
2022/07/22 06:40:38;;;;;;;;;16.25;14.25;;;;;21.42;61.30;101443.06;5017521;28;45418;-65
2022/07/22 06:43:04;;;;;;;;;18.50;17.25;;;;;21.42;61.45;101439.47;5018074;28;49767;-65
2022/07/22 06:45:30;;;;;;;;;19.00;16.50;;;;;21.41;60.83;101438.59;5019642;28;45339;-64
2022/07/22 06:47:55;;;;;;;;;16.75;16.25;;;;;21.38;61.50;101437.94;5022039;28;45600;-65
2022/07/22 06:50:21;;;;;;;;;19.00;17.50;;;;;21.40;61.53;101445.00;5019985;28;46002;-65
2022/07/22 06:52:46;;;;;;;;;19.75;17.25;;;;;21.38;61.41;101443.34;5022019;28;45509;-65
2022/07/22 06:55:12;;;;;;;;;17.00;17.00;;;;;21.40;61.21;101446.84;5021091;28;45374;-65
2022/07/22 06:57:37;;;;;;;;;20.25;18.00;;;;;21.44;61.34;101456.53;5022131;28;45165;-65
2022/07/22 07:00:07;;;;;;;;;22.75;20.50;;;;;21.47;61.25;101450.94;5021296;28;45368;-65
2022/07/22 07:02:33;;;;;;;;;19.75;17.50;;;;;21.47;61.20;101456.38;5022009;28;46115;-65
2022/07/22 07:04:58;;;;;;;;;15.25;14.50;;;;;21.43;61.50;101438.50;5021142;28;45490;-66
2022/07/22 07:07:23;;;;;;;;;19.50;18.00;;;;;21.59;60.87;101454.66;5011508;28;46022;-66
2022/07/22 07:09:49;;;;;;;;;26.25;20.75;;;;;21.64;60.50;101452.50;5015525;28;45464;-65
2022/07/22 07:12:14;;;;;;;;;20.00;19.50;;;;;21.78;61.02;101463.28;5021063;28;45461;-66
2022/07/22 07:14:39;;;;;;;;;15.75;14.75;;;;;21.83;61.08;101452.13;5020152;28;45627;-65
2022/07/22 07:17:05;;;;;;;;;17.50;16.50;;;;;21.93;60.04;101446.91;5015765;28;45498;-65
2022/07/22 07:19:30;;;;;;;;;16.75;15.75;;;;;21.92;60.82;101429.75;5018377;28;45493;-65
2022/07/22 07:21:55;;;;;;;;;19.75;17.50;;;;;22.02;60.81;101430.84;5019339;28;46919;-65
2022/07/22 07:24:21;;;;;;;;;27.25;23.75;;;;;21.97;60.25;101429.44;5020932;28;45307;-65
2022/07/22 07:26:46;;;;;;;;;19.25;17.75;;;;;22.00;60.37;101434.63;5018566;28;45517;-67
2022/07/22 07:29:11;;;;;;;;;22.00;18.00;;;;;22.02;60.49;101440.84;5020052;28;45720;-64
2022/07/22 07:31:37;;;;;;;;;17.75;17.75;;;;;22.09;60.60;101431.28;5020698;28;45505;-64
2022/07/22 07:34:02;;;;;;;;;25.25;22.25;;;;;22.08;59.93;101418.66;5019465;28;45365;-65
2022/07/22 07:36:27;;;;;;;;;22.50;21.00;;;;;22.09;59.80;101428.56;5019371;28;45483;-64
2022/07/22 07:38:53;;;;;;;;;19.00;16.50;;;;;22.13;60.07;101421.94;5020195;28;45678;-66
2022/07/22 07:41:18;;;;;;;;;21.00;19.75;;;;;22.23;60.82;101434.88;5020291;28;46299;-64
2022/07/22 07:43:44;;;;;;;;;22.75;19.75;;;;;22.25;59.84;101438.34;5019670;28;45466;-65
2022/07/22 07:46:09;;;;;;;;;21.50;18.25;;;;;22.22;59.54;101431.31;5021015;28;45436;-72
2022/07/22 07:48:34;;;;;;;;;18.50;17.50;;;;;22.25;60.06;101425.63;5019938;28;45825;-71
2022/07/22 07:51:00;;;;;;;;;21.75;20.00;;;;;22.32;60.05;101436.97;5018122;28;46105;-73
2022/07/22 07:53:26;;;;;;;;;17.00;16.50;;;;;22.41;60.27;101436.31;5018991;28;45473;-71
2022/07/22 07:55:52;;;;;;;;;19.75;18.50;;;;;22.45;60.19;101446.00;5019436;28;45376;-71
2022/07/22 07:58:17;;;;;;;;;24.00;19.25;;;;;22.48;60.22;101448.50;5020302;28;45304;-70
2022/07/22 08:00:42;;;;;;;;;18.50;17.75;;;;;22.52;60.11;101439.16;5017250;28;45648;-71
2022/07/22 08:03:08;;;;;;;;;20.50;18.50;;;;;22.62;59.97;101441.19;5017604;28;45375;-71
2022/07/22 08:05:35;;;;;;;;;19.25;17.50;;;;;22.69;60.03;101435.22;5012933;28;45501;-71
2022/07/22 08:08:00;;;;;;;;;21.00;19.25;;;;;22.74;60.03;101433.03;5013959;28;45391;-71
2022/07/22 08:10:26;;;;;;;;;20.75;18.00;;;;;22.76;59.04;101430.19;5013186;28;45447;-71
2022/07/22 08:12:53;;;;;;;;;20.75;19.00;;;;;22.87;59.79;101438.44;5016179;28;45343;-71
2022/07/22 08:15:18;;;;;;;;;22.00;19.25;;;;;22.91;58.73;101428.19;5018340;28;45285;-71
2022/07/22 08:17:43;;;;;;;;;15.00;13.75;;;;;22.88;59.06;101421.09;5020365;28;49122;-71
2022/07/22 08:20:09;;;;;;;;;20.50;19.50;;;;;22.89;58.47;101420.13;5018173;28;46100;-71
2022/07/22 08:22:34;;;;;;;;;19.25;18.25;;;;;22.93;58.73;101424.34;5019991;28;45308;-72
2022/07/22 08:25:00;;;;;;;;;23.25;19.75;;;;;22.97;58.77;101411.41;5010865;28;45709;-73
2022/07/22 08:27:25;;;;;;;;;16.75;15.50;;;;;23.00;59.20;101419.34;5019548;28;46253;-72
2022/07/22 08:29:51;;;;;;;;;24.00;22.00;;;;;23.05;58.99;101413.56;5019492;28;46399;-72
2022/07/22 08:32:16;;;;;;;;;22.50;20.75;;;;;23.06;58.52;101413.47;5019595;28;45358;-72
2022/07/22 08:34:42;;;;;;;;;24.00;23.75;;;;;23.10;58.78;101411.38;5020056;28;45411;-72
2022/07/22 08:37:07;;;;;;;;;22.25;19.00;;;;;23.10;58.79;101408.66;5019624;28;45422;-72
2022/07/22 08:39:33;;;;;;;;;18.50;18.00;;;;;23.07;58.36;101407.06;5017135;28;46274;-72
2022/07/22 08:41:59;;;;;;;;;19.25;17.50;;;;;23.13;58.32;101417.47;5019536;28;45607;-72
2022/07/22 08:44:24;;;;;;;;;21.50;20.00;;;;;23.19;58.64;101423.44;5015270;28;45466;-66
2022/07/22 08:46:50;;;;;;;;;23.50;21.00;;;;;23.24;58.55;101421.25;5019553;28;45685;-66
2022/07/22 08:49:16;;;;;;;;;21.00;18.50;;;;;23.26;58.20;101414.69;5019359;28;45516;-66
2022/07/22 08:51:41;;;;;;;;;20.50;19.25;;;;;23.27;58.48;101408.28;5018106;28;45313;-65
2022/07/22 08:54:07;;;;;;;;;17.75;17.75;;;;;23.29;58.48;101391.81;5018047;28;45832;-66
2022/07/22 08:56:32;;;;;;;;;24.50;23.00;;;;;23.35;58.41;101387.75;5019237;28;45390;-66
2022/07/22 08:58:57;;;;;;;;;26.25;24.25;;;;;23.36;57.96;101375.88;5018917;28;46257;-65
2022/07/22 09:01:23;;;;;;;;;23.50;20.75;;;;;23.41;58.48;101368.22;5018454;28;45459;-66
2022/07/22 09:03:55;;;;;;;;;22.00;19.75;;;;;23.40;58.12;101345.53;5019762;28;45382;-66
2022/07/22 09:06:24;;;;;;;;;25.25;22.75;;;;;23.43;57.97;101331.69;5018904;28;45231;-66
2022/07/22 09:08:53;;;;;;;;;21.00;20.25;;;;;23.46;58.16;101325.16;5015808;28;45546;-74
2022/07/22 09:11:20;;;;;;;;;20.50;20.00;;;;;23.49;58.46;101330.34;5018818;28;45570;-72
2022/07/22 09:13:47;;;;;;;;;20.00;18.75;;;;;23.53;57.93;101350.06;5006519;28;45256;-71
2022/07/22 09:16:12;;;;;;;;;18.00;17.00;;;;;23.58;58.03;101362.31;5017784;28;45456;-70
2022/07/22 09:18:46;;;;;;;;;21.00;19.75;;;;;23.63;58.10;101368.28;5016732;28;46549;-71
2022/07/22 09:21:13;;;;;;;;;21.25;20.25;;;;;23.71;58.10;101377.75;5017564;28;45586;-71
2022/07/22 09:23:41;;;;;;;;;19.25;19.00;;;;;23.76;57.90;101383.69;5017131;28;45376;-70
2022/07/22 09:26:07;;;;;;;;;19.00;17.75;;;;;23.81;58.16;101397.84;5018861;28;45378;-69
2022/07/22 09:28:32;;;;;;;;;22.25;21.25;;;;;23.84;58.21;101403.94;5018527;28;45438;-70
2022/07/22 09:30:57;;;;;;;;;19.75;19.75;;;;;23.92;58.28;101406.03;5016559;28;45475;-69
2022/07/22 09:33:23;;;;;;;;;20.75;19.50;;;;;23.97;58.11;101394.78;5019297;28;45520;-69
2022/07/22 09:35:49;;;;;;;;;19.75;18.50;;;;;24.04;58.08;101401.53;5016085;28;45522;-69
2022/07/22 09:38:17;;;;;;;;;22.25;20.00;;;;;24.07;57.56;101395.78;5009482;28;47261;-70
2022/07/22 09:40:44;;;;;;;;;19.75;19.75;;;;;24.09;57.55;101380.19;5018274;28;45329;-70
2022/07/22 09:43:16;;;;;;;;;21.50;20.25;;;;;24.08;57.15;101364.81;5012973;28;45453;-71
2022/07/22 09:45:47;;;;;;;;;21.75;21.00;;;;;24.11;57.82;101361.84;5015317;28;45328;-71
2022/07/22 09:48:12;;;;;;;;;22.00;20.00;;;;;24.15;57.59;101371.50;5018516;28;46383;-70
2022/07/22 09:50:38;;;;;;;;;21.00;20.50;;;;;24.11;57.86;101364.56;5013952;28;45940;-70
2022/07/22 09:53:04;;;;;;;;;20.25;19.75;;;;;24.21;58.27;101375.63;5016448;28;45597;-70
2022/07/22 09:55:30;;;;;;;;;16.00;15.00;;;;;24.30;57.39;101379.47;5018245;28;45489;-70
2022/07/22 09:57:57;;;;;;;;;20.75;19.00;;;;;24.35;57.01;101369.03;5017987;28;45460;-71
2022/07/22 10:00:24;;;;;;;;;18.25;18.00;;;;;24.41;57.52;101376.75;5018130;28;45667;-70
2022/07/22 10:02:59;;;;;;;;;20.00;18.75;;;;;24.45;57.30;101375.50;5017749;28;45536;-73
2022/07/22 10:05:30;;;;;;;;;20.50;19.75;;;;;24.48;56.67;101369.78;5018348;28;45378;-75
2022/07/22 10:07:56;;;;;;;;;20.00;20.00;;;;;24.49;56.82;101367.91;5017549;28;45453;-73
2022/07/22 10:10:27;;;;;;;;;19.25;18.00;;;;;24.52;57.29;101373.13;5017091;28;45320;-73
2022/07/22 10:12:55;;;;;;;;;17.75;16.00;;;;;24.51;57.25;101369.53;5006734;28;45546;-72
2022/07/22 10:15:23;;;;;;;;;24.00;23.25;;;;;24.56;56.76;101371.94;5017578;28;45541;-72
2022/07/22 10:17:55;;;;;;;;;20.25;18.75;;;;;24.57;57.32;101360.91;5014236;28;46273;-72
2022/07/22 10:20:23;;;;;;;;;20.25;18.25;;;;;24.60;56.97;101357.88;5019805;28;45351;-72
2022/07/22 10:22:51;;;;;;;;;19.75;18.50;;;;;24.63;56.48;101369.56;5019095;28;45443;-72
2022/07/22 10:25:18;;;;;;;;;18.00;17.00;;;;;24.63;56.62;101364.97;5019527;28;45506;-71
2022/07/22 10:28:02;;;;;;;;;21.25;21.00;;;;;24.64;56.92;101360.38;5022114;28;47304;-71
2022/07/22 10:30:31;;;;;;;;;18.75;18.75;;;;;24.65;56.78;101359.38;5021028;28;45363;-72
2022/07/22 10:33:14;;;;;;;;;22.75;19.75;;;;;24.65;56.29;101352.06;5021684;28;45336;-72
2022/07/22 10:36:03;;;;;;;;;19.50;19.50;;;;;24.65;56.58;101348.47;5021074;28;45253;-72
2022/07/22 10:38:30;;;;;;;;;25.25;22.00;;;;;24.62;56.07;101335.94;5012347;28;46224;-72
2022/07/22 10:41:00;;;;;;;;;26.00;22.00;;;;;24.66;57.19;101336.53;5021426;28;45523;-72
2022/07/22 10:43:27;;;;;;;;;26.25;24.50;;;;;24.66;57.00;101320.16;5021616;28;45399;-71
2022/07/22 10:45:55;;;;;;;;;20.25;18.75;;;;;24.65;57.79;101302.94;5021938;28;45683;-71
2022/07/22 10:48:45;;;;;;;;;23.25;23.25;;;;;24.64;57.82;101264.84;5021421;28;45498;-71
2022/07/22 10:51:21;;;;;;;;;24.75;23.75;;;;;24.59;58.70;101240.66;5012825;28;46959;-71
2022/07/22 10:53:54;;;;;;;;;20.75;18.50;;;;;24.58;59.09;101241.66;5021883;28;45332;-69
2022/07/22 10:56:24;;;;;;;;;20.75;19.50;;;;;24.55;59.11;101247.38;5021564;28;45363;-71
2022/07/22 10:59:10;;;;;;;;;27.50;26.25;;;;;24.56;58.10;101257.31;5016511;28;45338;-72
2022/07/22 11:01:55;;;;;;;;;31.50;27.75;;;;;24.56;59.97;101277.28;5016442;28;45347;-71
2022/07/22 11:04:22;;;;;;;;;29.75;25.25;;;;;24.54;58.74;101275.63;5020978;28;45416;-72